Time;durP1;ratioP1;P1;durP2;ratioP2;P2;SDS_P1;SDS_P2;PMS_P1;PMS_P2;Temp;Humidity;BMP_temperature;BMP_pressure;BME280_temperature;BME280_humidity;BME280_pressure;Samples;Min_cycle;Max_cycle;Signal;HPM_P1;HPM_P2
2023/06/30 00:02:06;;;;;;;2.30;2.17;;;20.40;92.90;;;;;;5096861;28;20463;-73
2023/06/30 00:04:33;;;;;;;4.57;2.43;;;20.40;92.90;;;;;;5096955;28;20532;-74
2023/06/30 00:07:00;;;;;;;3.20;2.03;;;20.40;93.00;;;;;;5096937;28;20824;-74
2023/06/30 00:09:28;;;;;;;2.00;1.90;;;20.30;93.00;;;;;;5097397;28;20443;-74
2023/06/30 00:11:55;;;;;;;2.83;2.17;;;20.30;93.20;;;;;;5096803;28;20463;-73
2023/06/30 00:14:24;;;;;;;3.73;2.20;;;20.30;93.20;;;;;;5097200;28;20954;-74
2023/06/30 00:16:51;;;;;;;2.70;2.00;;;20.20;93.00;;;;;;5096708;28;20831;-73
2023/06/30 00:19:18;;;;;;;3.37;2.00;;;20.20;93.10;;;;;;5096006;28;20486;-74
2023/06/30 00:21:45;;;;;;;4.00;1.87;;;20.30;93.20;;;;;;5097142;28;20474;-72
2023/06/30 00:24:13;;;;;;;2.93;2.43;;;20.20;93.00;;;;;;5097211;28;20456;-74
2023/06/30 00:26:41;;;;;;;3.23;1.90;;;20.20;93.00;;;;;;5096630;28;20463;-74
2023/06/30 00:29:07;;;;;;;5.20;2.10;;;20.20;93.00;;;;;;5096329;28;20475;-74
2023/06/30 00:31:37;;;;;;;3.57;1.80;;;20.10;93.00;;;;;;5095940;28;20459;-74
2023/06/30 00:34:04;;;;;;;3.77;2.20;;;20.10;93.00;;;;;;5096542;28;20451;-75
2023/06/30 00:36:31;;;;;;;1.97;1.77;;;20.00;93.00;;;;;;5096233;28;20467;-75
2023/06/30 00:38:58;;;;;;;2.13;1.80;;;20.00;93.20;;;;;;5096439;28;20454;-75
2023/06/30 00:41:25;;;;;;;2.03;1.83;;;20.00;93.40;;;;;;5095352;28;20450;-72
2023/06/30 00:43:51;;;;;;;2.30;2.10;;;20.00;93.40;;;;;;5096526;28;20509;-73
2023/06/30 00:46:19;;;;;;;6.83;1.93;;;20.00;93.70;;;;;;5095967;28;20479;-74
2023/06/30 00:48:47;;;;;;;4.40;2.03;;;20.00;93.30;;;;;;5096359;28;20452;-73
2023/06/30 00:51:14;;;;;;;3.53;2.40;;;20.00;93.20;;;;;;5096592;28;20988;-72
2023/06/30 00:53:41;;;;;;;3.00;2.40;;;20.00;93.20;;;;;;5096546;28;20521;-72
2023/06/30 00:56:08;;;;;;;3.20;2.53;;;20.00;93.30;;;;;;5096606;28;20488;-73
2023/06/30 00:58:35;;;;;;;3.27;2.77;;;19.90;93.30;;;;;;5096947;28;20451;-73
2023/06/30 01:01:08;;;;;;;3.20;2.80;;;19.90;93.50;;;;;;5095708;28;20448;-73
2023/06/30 01:03:42;;;;;;;3.93;3.00;;;19.90;93.60;;;;;;5096560;28;20977;-73
2023/06/30 01:06:17;;;;;;;3.50;2.97;;;19.90;93.60;;;;;;5096329;28;20470;-74
2023/06/30 01:08:49;;;;;;;4.77;2.40;;;20.00;93.60;;;;;;5095788;28;20440;-74
2023/06/30 01:11:17;;;;;;;4.70;2.77;;;19.90;93.40;;;;;;5096248;28;20481;-74
2023/06/30 01:13:45;;;;;;;3.40;2.27;;;19.90;93.40;;;;;;5095637;28;20478;-74
2023/06/30 01:16:13;;;;;;;3.63;2.37;;;19.80;93.10;;;;;;5095580;28;20440;-75
2023/06/30 01:18:42;;;;;;;4.80;2.23;;;19.80;93.10;;;;;;5094750;28;20555;-73
2023/06/30 01:21:13;;;;;;;4.00;2.53;;;19.80;93.30;;;;;;5096246;28;20479;-74
2023/06/30 01:23:46;;;;;;;2.80;1.70;;;19.80;93.40;;;;;;5095554;28;20980;-73
2023/06/30 01:26:13;;;;;;;2.20;2.00;;;19.80;93.30;;;;;;5095933;28;20468;-73
2023/06/30 01:28:41;;;;;;;3.03;2.30;;;19.80;93.20;;;;;;5095837;28;20448;-73
2023/06/30 01:31:09;;;;;;;6.70;2.60;;;19.80;93.30;;;;;;5095736;28;20524;-73
2023/06/30 01:33:37;;;;;;;4.20;2.60;;;19.80;93.50;;;;;;5095457;28;20476;-72
2023/06/30 01:36:05;;;;;;;3.20;2.60;;;19.80;93.80;;;;;;5099399;28;20443;-74
2023/06/30 01:38:33;;;;;;;3.53;2.80;;;19.80;93.80;;;;;;5108171;28;20493;-73
2023/06/30 01:41:01;;;;;;;2.50;2.20;;;19.80;93.80;;;;;;5101522;28;20444;-73
2023/06/30 01:43:30;;;;;;;4.40;2.63;;;19.80;93.80;;;;;;5099228;28;20497;-72
2023/06/30 01:45:57;;;;;;;4.33;2.70;;;19.80;93.70;;;;;;5096550;28;20476;-73
2023/06/30 01:48:25;;;;;;;6.83;2.27;;;19.80;93.70;;;;;;5112828;28;20465;-73
2023/06/30 01:50:55;;;;;;;4.70;2.70;;;19.80;93.70;;;;;;5117308;28;20447;-73
2023/06/30 01:53:21;;;;;;;4.50;2.80;;;19.80;93.80;;;;;;5103652;28;20471;-73
2023/06/30 01:55:49;;;;;;;5.00;3.50;;;19.80;93.80;;;;;;5095923;28;20497;-73
2023/06/30 01:58:17;;;;;;;5.73;3.17;;;19.80;93.80;;;;;;5095805;28;20455;-73
2023/06/30 02:00:45;;;;;;;4.60;3.83;;;19.80;93.90;;;;;;5095673;28;20455;-73
2023/06/30 02:03:13;;;;;;;6.37;3.33;;;19.80;94.10;;;;;;5095450;28;20468;-73
2023/06/30 02:05:40;;;;;;;6.53;3.97;;;19.80;94.10;;;;;;5096055;28;20487;-73
2023/06/30 02:08:06;;;;;;;8.00;4.13;;;19.80;94.10;;;;;;5095905;28;20451;-73
2023/06/30 02:10:33;;;;;;;6.67;3.90;;;19.80;94.10;;;;;;5095686;28;20444;-73
2023/06/30 02:13:01;;;;;;;7.70;4.60;;;19.80;94.20;;;;;;5096242;28;20484;-72
2023/06/30 02:15:28;;;;;;;10.70;4.67;;;19.70;94.30;;;;;;5096262;28;20443;-73
2023/06/30 02:17:55;;;;;;;8.03;5.17;;;19.70;94.20;;;;;;5095718;28;20439;-73
2023/06/30 02:20:22;;;;;;;9.77;4.77;;;19.70;94.30;;;;;;5097947;28;20498;-74
2023/06/30 02:22:49;;;;;;;9.47;5.80;;;19.60;94.30;;;;;;5100278;28;20460;-74
2023/06/30 02:25:16;;;;;;;7.00;4.70;;;19.50;94.40;;;;;;5099953;28;20853;-74
2023/06/30 02:27:45;;;;;;;5.77;5.20;;;19.50;94.70;;;;;;5098419;28;20447;-74
2023/06/30 02:30:14;;;;;;;6.70;5.33;;;19.40;94.90;;;;;;5098382;28;20459;-74
2023/06/30 02:32:41;;;;;;;5.43;4.83;;;19.40;95.00;;;;;;5098269;28;20471;-74
2023/06/30 02:35:10;;;;;;;6.63;5.70;;;19.40;95.10;;;;;;5097175;28;20483;-74
2023/06/30 02:37:37;;;;;;;14.97;6.07;;;19.40;95.00;;;;;;5095615;28;20447;-74
2023/06/30 02:40:04;;;;;;;5.83;5.20;;;19.40;95.20;;;;;;5094988;28;20949;-73
2023/06/30 02:42:31;;;;;;;7.80;5.80;;;19.40;95.40;;;;;;5095392;28;20495;-74
2023/06/30 02:44:58;;;;;;;6.73;5.47;;;19.40;95.50;;;;;;5095832;28;20455;-74
2023/06/30 02:47:26;;;;;;;10.83;6.13;;;19.40;95.40;;;;;;5094962;28;20846;-74
2023/06/30 02:49:53;;;;;;;9.70;6.37;;;19.30;95.00;;;;;;5095929;28;20801;-74
2023/06/30 02:52:19;;;;;;;13.10;7.80;;;19.40;95.10;;;;;;5095329;28;20493;-74
2023/06/30 02:54:46;;;;;;;7.97;6.97;;;19.40;94.80;;;;;;5095850;28;20455;-74
2023/06/30 02:57:13;;;;;;;8.97;7.53;;;19.30;94.90;;;;;;5094211;28;20447;-74
2023/06/30 02:59:40;;;;;;;8.07;7.07;;;19.30;94.90;;;;;;5094007;28;20443;-74
2023/06/30 03:02:06;;;;;;;10.73;7.17;;;19.20;95.10;;;;;;5094389;28;20830;-74
2023/06/30 03:04:35;;;;;;;12.47;7.10;;;19.20;95.40;;;;;;5092640;28;20440;-74
2023/06/30 03:07:01;;;;;;;9.77;7.43;;;19.20;95.60;;;;;;5094172;28;20482;-74
2023/06/30 03:09:28;;;;;;;8.17;7.47;;;19.10;95.60;;;;;;5093927;28;20822;-74
2023/06/30 03:11:55;;;;;;;11.90;6.97;;;19.20;95.50;;;;;;5093516;28;20472;-74
2023/06/30 03:14:22;;;;;;;11.77;8.20;;;19.10;95.40;;;;;;5094071;28;20505;-74
2023/06/30 03:16:48;;;;;;;11.00;8.10;;;19.00;95.50;;;;;;5093919;28;20450;-74
2023/06/30 03:19:15;;;;;;;8.93;8.13;;;18.90;95.80;;;;;;5093994;28;20455;-74
2023/06/30 03:21:43;;;;;;;12.30;8.40;;;19.00;95.90;;;;;;5093611;28;20547;-74
2023/06/30 03:24:10;;;;;;;12.27;8.07;;;19.00;96.00;;;;;;5093264;28;20818;-74
2023/06/30 03:26:37;;;;;;;20.40;8.13;;;19.00;95.80;;;;;;5093621;28;21061;-74
2023/06/30 03:29:04;;;;;;;10.83;8.40;;;19.00;95.90;;;;;;5094114;28;20455;-74
2023/06/30 03:31:31;;;;;;;14.50;9.63;;;19.10;96.00;;;;;;5094137;28;20475;-74
2023/06/30 03:33:58;;;;;;;9.57;8.30;;;19.00;96.00;;;;;;5093613;28;20874;-74
2023/06/30 03:36:25;;;;;;;13.80;8.50;;;19.00;95.90;;;;;;5093707;28;20486;-74
2023/06/30 03:38:53;;;;;;;9.27;8.37;;;19.00;95.90;;;;;;5093639;28;20451;-74
2023/06/30 03:41:21;;;;;;;10.47;8.47;;;19.10;95.90;;;;;;5092613;28;20448;-74
2023/06/30 03:43:48;;;;;;;10.87;7.87;;;19.10;95.90;;;;;;5094001;28;20554;-74
2023/06/30 03:46:15;;;;;;;11.30;7.80;;;19.10;95.80;;;;;;5093341;28;20471;-74
2023/06/30 03:48:42;;;;;;;12.77;8.13;;;19.10;95.70;;;;;;5093146;28;20463;-74
2023/06/30 03:51:09;;;;;;;10.73;8.17;;;19.00;95.90;;;;;;5093236;28;20500;-74
2023/06/30 03:53:36;;;;;;;9.57;7.37;;;18.90;95.90;;;;;;5105454;28;20468;-74
2023/06/30 03:56:04;;;;;;;12.80;9.10;;;18.90;96.00;;;;;;5117750;28;20490;-73
2023/06/30 03:58:31;;;;;;;11.53;8.57;;;18.80;96.10;;;;;;5104642;28;20454;-74
2023/06/30 04:00:58;;;;;;;15.30;8.50;;;18.80;96.30;;;;;;5101720;28;20443;-74
2023/06/30 04:03:25;;;;;;;14.47;9.40;;;18.80;96.50;;;;;;5098914;28;20983;-74
2023/06/30 04:05:53;;;;;;;15.10;9.13;;;18.80;96.50;;;;;;5098539;28;20839;-74
2023/06/30 04:08:20;;;;;;;18.73;8.00;;;18.70;96.50;;;;;;5097678;28;20452;-74
2023/06/30 04:10:47;;;;;;;10.67;8.13;;;18.70;96.60;;;;;;5097520;28;20971;-74
2023/06/30 04:13:16;;;;;;;12.27;8.53;;;18.70;96.80;;;;;;5097579;28;20888;-74
2023/06/30 04:15:44;;;;;;;8.60;7.53;;;18.70;96.70;;;;;;5097692;28;20555;-74
2023/06/30 04:18:11;;;;;;;13.07;8.50;;;18.70;96.90;;;;;;5096980;28;20456;-74
2023/06/30 04:20:38;;;;;;;16.87;7.93;;;18.70;96.90;;;;;;5097576;28;20432;-73
2023/06/30 04:23:05;;;;;;;12.20;8.43;;;18.80;97.00;;;;;;5097074;28;20463;-73
2023/06/30 04:25:32;;;;;;;12.90;8.53;;;18.80;96.80;;;;;;5097607;28;20877;-74
2023/06/30 04:27:59;;;;;;;11.80;8.10;;;18.80;96.50;;;;;;5096968;28;20444;-74
2023/06/30 04:30:27;;;;;;;12.83;8.17;;;18.80;96.20;;;;;;5096869;28;20466;-73
2023/06/30 04:32:53;;;;;;;15.40;8.57;;;18.70;96.10;;;;;;5096689;28;20464;-73
2023/06/30 04:35:24;;;;;;;9.80;7.07;;;18.70;96.10;;;;;;5096457;28;20448;-73
2023/06/30 04:37:51;;;;;;;9.93;7.57;;;18.70;96.30;;;;;;5096618;28;20514;-74
2023/06/30 04:40:18;;;;;;;21.03;7.50;;;18.60;96.40;;;;;;5104622;28;20474;-73
2023/06/30 04:42:45;;;;;;;11.37;7.40;;;18.60;96.50;;;;;;5100088;28;20876;-73
2023/06/30 04:45:12;;;;;;;10.70;7.90;;;18.60;96.50;;;;;;5098215;28;20483;-72
2023/06/30 04:47:40;;;;;;;18.00;8.73;;;18.60;96.10;;;;;;5095829;28;20854;-73
2023/06/30 04:50:07;;;;;;;12.13;7.20;;;18.60;96.40;;;;;;5095950;28;20447;-72
2023/06/30 04:52:34;;;;;;;10.67;7.47;;;18.60;96.60;;;;;;5095826;28;20475;-73
2023/06/30 04:55:01;;;;;;;10.77;7.20;;;18.60;96.50;;;;;;5095737;28;20448;-73
2023/06/30 04:57:28;;;;;;;9.10;6.90;;;18.70;96.40;;;;;;5096120;28;20448;-73
2023/06/30 04:59:55;;;;;;;9.93;7.00;;;18.70;96.30;;;;;;5095497;28;21006;-73
2023/06/30 05:02:21;;;;;;;12.83;7.40;;;18.70;96.30;;;;;;5095795;28;20459;-72
2023/06/30 05:04:51;;;;;;;8.10;6.80;;;18.80;96.20;;;;;;5094959;28;20454;-72
2023/06/30 05:07:18;;;;;;;14.90;7.30;;;18.80;95.70;;;;;;5095716;28;20475;-73
2023/06/30 05:09:44;;;;;;;15.63;6.60;;;18.80;95.40;;;;;;5095474;28;20456;-73
2023/06/30 05:12:12;;;;;;;12.80;6.60;;;18.80;95.70;;;;;;5095258;28;20486;-72
2023/06/30 05:14:39;;;;;;;10.03;6.30;;;18.90;95.80;;;;;;5095473;28;20459;-73
2023/06/30 05:17:06;;;;;;;14.33;5.90;;;18.90;95.40;;;;;;5077155;28;20444;-73
2023/06/30 05:19:33;;;;;;;8.80;6.40;;;18.90;95.10;;;;;;5095255;28;20460;-73
2023/06/30 05:22:02;;;;;;;14.90;6.20;;;19.00;95.20;;;;;;5095820;28;20463;-73
2023/06/30 05:24:29;;;;;;;17.83;6.60;;;19.10;95.30;;;;;;5094981;28;20456;-72
2023/06/30 05:26:56;;;;;;;10.83;6.53;;;19.10;95.00;;;;;;5094962;28;20996;-73
2023/06/30 05:29:23;;;;;;;8.10;5.33;;;19.10;94.50;;;;;;5094836;28;20994;-73
2023/06/30 05:31:49;;;;;;;10.97;6.10;;;19.20;94.70;;;;;;5094926;28;20470;-73
2023/06/30 05:34:16;;;;;;;22.10;6.70;;;19.20;94.60;;;;;;5094817;28;20451;-73
2023/06/30 05:36:44;;;;;;;7.33;5.53;;;19.20;94.60;;;;;;5094513;28;20968;-73
2023/06/30 05:39:13;;;;;;;9.03;5.77;;;19.20;94.50;;;;;;5093592;28;20469;-72
2023/06/30 05:41:41;;;;;;;11.27;5.53;;;19.20;94.30;;;;;;5094652;28;20494;-73
2023/06/30 05:44:09;;;;;;;9.27;5.47;;;19.30;94.40;;;;;;5094589;28;20456;-73
2023/06/30 05:46:37;;;;;;;9.63;5.63;;;19.30;94.30;;;;;;5094235;28;21041;-73
2023/06/30 05:49:05;;;;;;;9.73;6.37;;;19.30;94.20;;;;;;5094666;28;20460;-72
2023/06/30 05:51:32;;;;;;;9.83;5.30;;;19.40;93.70;;;;;;5094962;28;20458;-73
2023/06/30 05:53:59;;;;;;;7.63;5.00;;;19.50;93.90;;;;;;5094341;28;20472;-73
2023/06/30 05:56:28;;;;;;;14.40;5.73;;;19.50;93.70;;;;;;5094161;28;20448;-73
2023/06/30 05:58:55;;;;;;;9.00;4.20;;;19.60;93.80;;;;;;5094380;28;20470;-73
2023/06/30 06:01:22;;;;;;;9.07;3.60;;;19.70;93.50;;;;;;5095039;28;20538;-73
2023/06/30 06:03:49;;;;;;;10.00;4.37;;;19.80;92.50;;;;;;5094537;28;20464;-73
2023/06/30 06:06:16;;;;;;;5.77;3.70;;;19.80;91.40;;;;;;5094055;28;20476;-73
2023/06/30 06:08:46;;;;;;;5.40;3.77;;;19.80;91.50;;;;;;5094125;28;20937;-73
2023/06/30 06:11:13;;;;;;;6.07;4.17;;;19.80;91.00;;;;;;5094308;28;20455;-73
2023/06/30 06:13:42;;;;;;;6.90;3.87;;;19.80;90.50;;;;;;5104112;28;20473;-73
2023/06/30 06:16:08;;;;;;;12.40;4.47;;;19.80;90.90;;;;;;5100491;28;20440;-73
2023/06/30 06:18:36;;;;;;;8.50;4.53;;;19.80;90.30;;;;;;5099703;28;20462;-73
2023/06/30 06:21:04;;;;;;;10.17;4.50;;;19.80;90.80;;;;;;5097118;28;20460;-72
2023/06/30 06:23:31;;;;;;;5.97;3.47;;;19.80;90.60;;;;;;5094514;28;20474;-73
2023/06/30 06:25:57;;;;;;;6.87;3.93;;;19.80;90.40;;;;;;5095935;28;20446;-73
2023/06/30 06:28:24;;;;;;;12.50;3.67;;;19.90;90.90;;;;;;5094779;28;20443;-73
2023/06/30 06:30:52;;;;;;;6.83;3.60;;;19.90;91.00;;;;;;5094578;28;20505;-73
2023/06/30 06:33:22;;;;;;;5.40;3.47;;;19.90;91.30;;;;;;5094452;28;20467;-74
2023/06/30 06:35:50;;;;;;;8.87;4.30;;;20.00;91.50;;;;;;5092708;28;20440;-74
2023/06/30 06:38:18;;;;;;;5.13;3.87;;;20.10;91.70;;;;;;5093938;28;20861;-74
2023/06/30 06:40:44;;;;;;;15.17;4.30;;;20.10;90.90;;;;;;5093914;28;20491;-73
2023/06/30 06:43:11;;;;;;;9.80;4.50;;;20.10;90.20;;;;;;5094066;28;20831;-74
2023/06/30 06:45:38;;;;;;;6.70;3.00;;;20.20;90.40;;;;;;5094109;28;20522;-74
2023/06/30 06:48:20;;;;;;;8.30;3.73;;;20.30;90.80;;;;;;5093829;28;20851;-73
2023/06/30 06:50:48;;;;;;;5.73;2.97;;;20.50;90.70;;;;;;5093962;28;20456;-73
2023/06/30 06:53:19;;;;;;;8.50;3.30;;;20.50;88.60;;;;;;5094153;28;20471;-73
2023/06/30 06:55:47;;;;;;;6.07;2.50;;;20.60;88.70;;;;;;5094239;28;20541;-73
2023/06/30 06:58:14;;;;;;;4.57;2.37;;;20.80;88.90;;;;;;5093833;28;20448;-73
2023/06/30 07:00:41;;;;;;;3.80;2.47;;;20.90;88.20;;;;;;5092457;28;20949;-74
2023/06/30 07:03:08;;;;;;;3.80;2.10;;;21.10;86.50;;;;;;5093739;28;20467;-73
2023/06/30 07:05:36;;;;;;;4.23;1.97;;;21.20;86.10;;;;;;5093746;28;20451;-74
2023/06/30 07:08:04;;;;;;;5.20;2.10;;;21.40;82.80;;;;;;5093513;28;20487;-74
2023/06/30 07:10:31;;;;;;;2.93;1.97;;;21.50;79.80;;;;;;5093701;28;20559;-74
2023/06/30 07:12:58;;;;;;;3.00;1.80;;;21.50;80.40;;;;;;5092683;28;20460;-74
2023/06/30 07:15:26;;;;;;;5.40;2.10;;;21.60;81.80;;;;;;5093583;28;20452;-73
2023/06/30 07:17:53;;;;;;;5.03;2.43;;;21.70;81.10;;;;;;5093229;28;20448;-73
2023/06/30 07:20:20;;;;;;;3.53;1.87;;;21.70;77.00;;;;;;5092944;28;20485;-73
2023/06/30 07:22:48;;;;;;;4.27;2.07;;;21.80;77.20;;;;;;5093232;28;20467;-73
2023/06/30 07:25:15;;;;;;;4.47;1.50;;;21.80;75.00;;;;;;5093455;28;20455;-73
2023/06/30 07:27:49;;;;;;;4.43;2.50;;;22.00;76.60;;;;;;5095163;28;21046;-73
2023/06/30 07:30:16;;;;;;;5.00;1.93;;;22.10;77.90;;;;;;5097542;28;20460;-73
2023/06/30 07:32:43;;;;;;;3.53;2.17;;;22.30;76.80;;;;;;5107089;28;20478;-73
2023/06/30 07:35:09;;;;;;;6.03;2.27;;;22.50;74.40;;;;;;5099836;28;20501;-73
2023/06/30 07:37:36;;;;;;;6.30;2.47;;;22.60;73.30;;;;;;5096859;28;20483;-73
2023/06/30 07:40:07;;;;;;;4.17;2.20;;;22.80;73.00;;;;;;5097373;28;20450;-73
2023/06/30 07:42:34;;;;;;;4.07;2.77;;;23.00;70.70;;;;;;5096724;28;20977;-72
2023/06/30 07:45:01;;;;;;;3.93;1.87;;;23.20;70.80;;;;;;5097025;28;20454;-73
2023/06/30 07:47:28;;;;;;;2.73;1.63;;;23.50;71.40;;;;;;5097579;28;20494;-73
2023/06/30 07:49:55;;;;;;;6.53;2.63;;;23.70;69.40;;;;;;5096904;28;20979;-73
2023/06/30 07:52:21;;;;;;;3.23;1.77;;;23.90;67.70;;;;;;5096825;28;20467;-73
2023/06/30 07:54:52;;;;;;;4.50;1.90;;;24.10;65.00;;;;;;5096842;28;20447;-73
2023/06/30 07:57:21;;;;;;;5.07;1.70;;;24.30;66.60;;;;;;5097072;28;20501;-73
2023/06/30 07:59:48;;;;;;;3.80;1.60;;;24.60;67.30;;;;;;5096967;28;20455;-73
2023/06/30 08:02:17;;;;;;;1.90;1.40;;;24.90;63.00;;;;;;5096656;28;20474;-74
2023/06/30 08:04:44;;;;;;;3.80;1.90;;;25.00;63.00;;;;;;5096533;28;20447;-74
2023/06/30 08:07:10;;;;;;;2.20;1.50;;;25.20;62.10;;;;;;5096549;28;20475;-72
2023/06/30 08:09:37;;;;;;;5.20;2.00;;;25.40;60.10;;;;;;5096577;28;20454;-71
2023/06/30 08:12:05;;;;;;;5.30;1.63;;;25.60;58.60;;;;;;5096522;28;20468;-72
2023/06/30 08:14:33;;;;;;;5.93;2.07;;;25.60;56.20;;;;;;5096440;28;20944;-72
2023/06/30 08:17:00;;;;;;;2.80;1.67;;;25.60;56.90;;;;;;5096437;28;20467;-73
2023/06/30 08:19:27;;;;;;;2.37;1.40;;;25.70;56.00;;;;;;5095571;28;20459;-73
2023/06/30 08:21:54;;;;;;;2.80;1.43;;;25.70;55.40;;;;;;5097100;28;20448;-73
2023/06/30 08:24:21;;;;;;;3.20;1.47;;;25.90;57.00;;;;;;5096116;28;20447;-73
2023/06/30 08:26:48;;;;;;;3.13;1.57;;;26.20;57.00;;;;;;5096381;28;20448;-73
2023/06/30 08:29:15;;;;;;;3.57;1.50;;;26.40;57.00;;;;;;5096906;28;20497;-73
2023/06/30 08:31:43;;;;;;;4.53;1.77;;;26.70;55.70;;;;;;5108293;28;20511;-73
2023/06/30 08:34:10;;;;;;;1.90;1.30;;;27.00;52.80;;;;;;5099725;28;20443;-73
2023/06/30 08:36:37;;;;;;;1.97;1.40;;;27.10;51.80;;;;;;5098154;28;20443;-73
2023/06/30 08:39:04;;;;;;;3.03;1.60;;;27.20;49.10;;;;;;5096794;28;20447;-73
2023/06/30 08:41:33;;;;;;;2.43;1.30;;;27.10;48.50;;;;;;5096859;28;20444;-72
2023/06/30 08:44:01;;;;;;;5.60;1.20;;;26.90;49.10;;;;;;5096593;28;20897;-72
2023/06/30 08:46:29;;;;;;;2.97;1.60;;;26.70;49.80;;;;;;5096103;28;20444;-73
2023/06/30 08:48:57;;;;;;;5.33;1.40;;;26.60;47.30;;;;;;5096443;28;20480;-73
2023/06/30 08:51:25;;;;;;;3.70;1.40;;;26.40;46.60;;;;;;5096009;28;20956;-73
2023/06/30 08:53:54;;;;;;;2.60;1.50;;;26.10;47.90;;;;;;5095689;28;20992;-72
2023/06/30 08:56:22;;;;;;;3.10;1.60;;;26.00;49.20;;;;;;5096354;28;20444;-73
2023/06/30 08:58:49;;;;;;;3.97;1.30;;;26.00;49.30;;;;;;5096111;28;20444;-73
2023/06/30 09:01:16;;;;;;;4.23;1.23;;;26.10;48.40;;;;;;5095861;28;20562;-71
2023/06/30 09:03:44;;;;;;;2.47;2.00;;;26.00;47.90;;;;;;5096225;28;20464;-73
2023/06/30 09:06:15;;;;;;;2.67;1.50;;;25.80;47.50;;;;;;5096353;28;20458;-73
2023/06/30 09:08:48;;;;;;;2.60;1.10;;;25.80;49.10;;;;;;5095218;28;20551;-72
2023/06/30 09:11:17;;;;;;;1.90;1.33;;;25.90;49.50;;;;;;5095545;28;20432;-73
2023/06/30 09:13:46;;;;;;;2.67;1.43;;;26.20;49.70;;;;;;5096431;28;20474;-73
2023/06/30 09:16:17;;;;;;;1.83;1.10;;;26.40;49.30;;;;;;5095184;28;20475;-73
2023/06/30 09:18:45;;;;;;;2.60;1.17;;;26.60;49.60;;;;;;5095055;28;20479;-72
2023/06/30 09:21:14;;;;;;;2.67;1.10;;;26.90;46.80;;;;;;5095264;28;20432;-72
2023/06/30 09:23:42;;;;;;;3.73;1.50;;;27.20;47.00;;;;;;5095046;28;20486;-72
2023/06/30 09:26:13;;;;;;;1.67;1.03;;;27.30;44.20;;;;;;5094916;28;20454;-73
2023/06/30 09:28:41;;;;;;;5.00;1.33;;;27.30;43.60;;;;;;5094653;28;20988;-73
2023/06/30 09:31:08;;;;;;;2.00;1.30;;;27.60;45.70;;;;;;5094959;28;20443;-73
2023/06/30 09:33:36;;;;;;;2.93;1.33;;;27.60;42.20;;;;;;5094899;28;20557;-72
2023/06/30 09:36:04;;;;;;;2.03;1.20;;;27.60;42.40;;;;;;5094665;28;20451;-72
2023/06/30 09:38:32;;;;;;;2.23;1.40;;;27.80;42.80;;;;;;5094751;28;20446;-73
2023/06/30 09:40:59;;;;;;;2.53;1.27;;;28.00;41.50;;;;;;5094481;28;21031;-73
2023/06/30 09:43:27;;;;;;;1.77;1.10;;;28.10;40.80;;;;;;5096037;28;20471;-72
2023/06/30 09:45:55;;;;;;;2.53;1.20;;;28.10;40.30;;;;;;5096393;28;20446;-73
2023/06/30 09:48:22;;;;;;;1.97;1.27;;;28.40;41.80;;;;;;5095852;28;20487;-73
2023/06/30 09:50:53;;;;;;;3.60;1.43;;;28.60;41.70;;;;;;5095933;28;20453;-73
2023/06/30 09:53:20;;;;;;;1.90;1.30;;;28.70;39.00;;;;;;5096949;28;20495;-72
2023/06/30 09:55:50;;;;;;;4.30;1.77;;;28.80;38.30;;;;;;5099756;28;20448;-73
2023/06/30 09:58:17;;;;;;;2.67;1.17;;;28.90;39.00;;;;;;5100599;28;20444;-72
2023/06/30 10:00:45;;;;;;;1.83;0.93;;;29.00;38.50;;;;;;5100728;28;20941;-73
2023/06/30 10:03:16;;;;;;;2.47;1.10;;;29.20;39.10;;;;;;5100033;28;20555;-73
2023/06/30 10:05:43;;;;;;;2.03;1.00;;;29.50;37.90;;;;;;5100373;28;20432;-72
2023/06/30 10:08:12;;;;;;;2.03;1.20;;;29.80;38.60;;;;;;5098619;28;21024;-73
2023/06/30 10:10:41;;;;;;;3.40;1.10;;;30.30;37.00;;;;;;5097833;28;20470;-73
2023/06/30 10:13:12;;;;;;;3.70;1.30;;;30.70;36.10;;;;;;5097242;28;20512;-72
2023/06/30 10:15:40;;;;;;;4.50;1.20;;;31.10;36.30;;;;;;5096814;28;20485;-72
2023/06/30 10:18:10;;;;;;;2.00;1.40;;;31.50;35.00;;;;;;5095694;28;20862;-74
2023/06/30 10:20:38;;;;;;;2.80;1.33;;;31.80;32.60;;;;;;5096068;28;20450;-73
2023/06/30 10:23:06;;;;;;;4.27;1.20;;;31.90;34.00;;;;;;5102616;28;20463;-72
2023/06/30 10:25:37;;;;;;;3.10;1.50;;;32.00;32.40;;;;;;5100768;28;20811;-73
2023/06/30 10:28:06;;;;;;;1.77;1.00;;;32.30;33.30;;;;;;5095270;28;20470;-73
2023/06/30 10:30:35;;;;;;;2.30;1.40;;;32.30;32.70;;;;;;5095722;28;20458;-74
2023/06/30 10:33:02;;;;;;;2.93;1.70;;;32.50;33.80;;;;;;5095838;28;20471;-72
2023/06/30 10:35:29;;;;;;;3.63;1.30;;;32.80;31.80;;;;;;5095195;28;20447;-74
2023/06/30 10:37:57;;;;;;;2.00;1.50;;;32.90;30.90;;;;;;5093387;28;20439;-73
2023/06/30 10:40:25;;;;;;;2.20;1.50;;;32.80;31.00;;;;;;5095087;28;20833;-73
2023/06/30 10:42:54;;;;;;;3.73;1.60;;;32.60;31.30;;;;;;5095865;28;20491;-73
2023/06/30 10:45:21;;;;;;;2.63;1.80;;;32.40;31.80;;;;;;5101033;28;20510;-72
2023/06/30 10:47:51;;;;;;;3.43;1.47;;;32.50;31.60;;;;;;5103105;28;20482;-73
2023/06/30 10:50:19;;;;;;;3.37;1.67;;;32.60;30.90;;;;;;5100111;28;20453;-73
2023/06/30 10:52:50;;;;;;;1.93;1.23;;;32.80;32.00;;;;;;5097354;28;20990;-72
2023/06/30 10:55:21;;;;;;;4.83;1.63;;;32.90;31.50;;;;;;5095222;28;20440;-73
2023/06/30 10:57:51;;;;;;;3.13;1.70;;;33.30;32.70;;;;;;5095797;28;20842;-73
2023/06/30 11:00:20;;;;;;;2.83;1.40;;;33.90;31.00;;;;;;5094866;28;20475;-74
2023/06/30 11:02:56;;;;;;;3.47;1.43;;;34.10;28.50;;;;;;5095733;28;20893;-73
2023/06/30 11:05:25;;;;;;;2.93;1.57;;;33.90;29.70;;;;;;5097486;28;20483;-73
2023/06/30 11:07:53;;;;;;;3.53;1.30;;;34.00;30.00;;;;;;5098195;28;20508;-73
2023/06/30 11:10:35;;;;;;;5.47;2.37;;;34.50;29.80;;;;;;5098018;28;20451;-74
2023/06/30 11:13:03;;;;;;;3.23;1.77;;;35.40;29.40;;;;;;5097730;28;20508;-73
2023/06/30 11:15:48;;;;;;;2.43;1.70;;;35.70;29.00;;;;;;5097920;28;20450;-73
2023/06/30 11:18:32;;;;;;;3.20;1.73;;;35.90;28.80;;;;;;5112826;28;20433;-75
2023/06/30 11:20:59;;;;;;;5.50;2.40;;;35.70;28.50;;;;;;5111567;28;20429;-74
2023/06/30 11:23:30;;;;;;;2.30;1.53;;;35.70;28.00;;;;;;5111224;28;20224;-74
2023/06/30 11:25:58;;;;;;;2.17;1.80;;;35.70;27.30;;;;;;5112697;28;20963;-75
2023/06/30 11:28:31;;;;;;;2.40;1.83;;;35.60;27.30;;;;;;5112507;28;20217;-74
2023/06/30 11:31:01;;;;;;;4.83;2.20;;;35.50;26.80;;;;;;5113404;28;20491;-74
2023/06/30 11:33:30;;;;;;;3.97;2.13;;;35.30;26.70;;;;;;5111028;28;20508;-74
2023/06/30 11:36:02;;;;;;;5.93;2.10;;;35.30;26.90;;;;;;5112459;28;20530;-74
2023/06/30 11:38:30;;;;;;;2.80;1.90;;;35.30;26.40;;;;;;5097960;28;20496;-74
2023/06/30 11:41:00;;;;;;;4.77;1.87;;;35.10;27.50;;;;;;5115361;28;20443;-75
2023/06/30 11:43:33;;;;;;;2.00;1.83;;;34.80;28.00;;;;;;5114426;28;20459;-74
2023/06/30 11:46:00;;;;;;;4.50;1.80;;;34.20;27.50;;;;;;5115250;28;20432;-74
2023/06/30 11:48:30;;;;;;;3.77;2.00;;;33.50;27.90;;;;;;5114387;28;20474;-74
2023/06/30 11:51:05;;;;;;;3.10;1.60;;;32.90;29.00;;;;;;5112737;28;20451;-74
2023/06/30 11:53:36;;;;;;;3.30;1.90;;;32.70;30.10;;;;;;5115164;28;20463;-74
2023/06/30 11:56:03;;;;;;;3.40;1.73;;;32.60;31.00;;;;;;5116315;28;20427;-74
2023/06/30 11:58:30;;;;;;;3.60;2.00;;;32.90;32.00;;;;;;5117166;28;20423;-74
2023/06/30 12:00:57;;;;;;;2.70;2.10;;;33.90;31.50;;;;;;5118344;28;20457;-74
2023/06/30 12:03:27;;;;;;;4.80;2.13;;;35.00;29.00;;;;;;5118689;28;20467;-74
2023/06/30 12:05:59;;;;;;;4.03;1.83;;;36.10;27.70;;;;;;5118546;28;20439;-74
2023/06/30 12:08:30;;;;;;;3.70;2.10;;;36.50;27.10;;;;;;5118209;28;20220;-74
2023/06/30 12:10:57;;;;;;;4.40;1.97;;;36.20;26.40;;;;;;5114983;28;20192;-74
2023/06/30 12:13:31;;;;;;;4.13;2.10;;;35.90;26.70;;;;;;5113252;28;20482;-74
2023/06/30 12:16:03;;;;;;;9.83;6.23;;;35.60;27.30;;;;;;5113842;28;20233;-74
2023/06/30 12:18:31;;;;;;;4.17;2.50;;;35.40;28.70;;;;;;5113110;28;20481;-75
2023/06/30 12:21:01;;;;;;;2.60;1.90;;;36.00;28.50;;;;;;5112389;28;20423;-75
2023/06/30 12:23:30;;;;;;;3.90;2.17;;;37.00;26.80;;;;;;5112750;28;20229;-75
2023/06/30 12:25:58;;;;;;;4.82;2.10;;;37.30;25.30;;;;;;5112460;28;20201;-75
2023/06/30 12:28:27;;;;;;;2.83;1.80;;;37.70;25.40;;;;;;5111949;28;20221;-75
2023/06/30 12:30:55;;;;;;;3.30;2.13;;;38.10;24.40;;;;;;5111769;28;20601;-72
2023/06/30 12:33:29;;;;;;;3.53;2.00;;;38.40;25.40;;;;;;5112612;28;20221;-73
2023/06/30 12:35:56;;;;;;;2.97;2.00;;;38.60;24.10;;;;;;5111653;28;20203;-72
2023/06/30 12:38:31;;;;;;;4.68;2.22;;;38.90;22.90;;;;;;5113139;28;20193;-73
2023/06/30 12:40:58;;;;;;;3.65;2.20;;;39.40;21.30;;;;;;5111698;28;20185;-74
2023/06/30 12:43:27;;;;;;;4.28;2.05;;;39.50;21.80;;;;;;5112084;28;20228;-73
2023/06/30 12:45:54;;;;;;;4.43;2.10;;;39.80;21.60;;;;;;5112440;28;20197;-74
2023/06/30 12:48:21;;;;;;;2.58;1.83;;;40.00;21.40;;;;;;5113941;28;20216;-73
2023/06/30 12:50:48;;;;;;;1.85;1.65;;;40.20;21.80;;;;;;5115575;28;20205;-74